Time;durP1;ratioP1;P1;durP2;ratioP2;P2;SDS_P1;SDS_P2;PMS_P1;PMS_P2;Temp;Humidity;BMP_temperature;BMP_pressure;BME280_temperature;BME280_humidity;BME280_pressure;Samples;Min_cycle;Max_cycle;Signal;HPM_P1;HPM_P2
2023/07/04 00:01:10;;;;;;;17.35;2.65;;;12.20;99.90;;;;;;5072845;28;20036;-54
2023/07/04 00:03:38;;;;;;;8.05;2.17;;;12.20;99.90;;;;;;5072700;28;20123;-55
2023/07/04 00:06:05;;;;;;;11.90;2.03;;;12.20;99.90;;;;;;5072684;28;20041;-54
2023/07/04 00:08:35;;;;;;;6.35;2.55;;;12.30;99.90;;;;;;5072498;28;20475;-55
2023/07/04 00:11:02;;;;;;;16.20;2.67;;;12.10;99.90;;;;;;5072535;28;20036;-55
2023/07/04 00:13:29;;;;;;;10.15;2.17;;;12.20;99.90;;;;;;5072364;28;20559;-55
2023/07/04 00:15:56;;;;;;;9.20;2.00;;;12.10;99.90;;;;;;5072549;28;20039;-55
2023/07/04 00:18:23;;;;;;;10.52;2.25;;;12.10;99.90;;;;;;5072712;28;20087;-54
2023/07/04 00:20:54;;;;;;;13.30;2.38;;;12.10;99.90;;;;;;5072422;28;20033;-55
2023/07/04 00:23:24;;;;;;;11.63;2.30;;;12.10;99.90;;;;;;5071391;28;20051;-55
2023/07/04 00:25:52;;;;;;;17.00;2.40;;;12.00;99.90;;;;;;5072150;28;20040;-54
2023/07/04 00:28:18;;;;;;;7.90;1.65;;;12.10;99.90;;;;;;5072114;28;20139;-55
2023/07/04 00:30:44;;;;;;;7.75;1.55;;;12.10;99.90;;;;;;5071325;28;20482;-55
2023/07/04 00:33:13;;;;;;;9.27;2.03;;;12.10;99.90;;;;;;5071927;28;20037;-55
2023/07/04 00:35:39;;;;;;;9.15;2.20;;;12.10;99.90;;;;;;5072060;28;20128;-55
2023/07/04 00:38:05;;;;;;;7.30;1.95;;;12.00;99.90;;;;;;5071911;28;20528;-55
2023/07/04 00:40:30;;;;;;;11.30;2.45;;;12.00;99.90;;;;;;5057717;28;20037;-55
2023/07/04 00:43:02;;;;;;;8.13;1.50;;;11.90;99.90;;;;;;5072391;28;20044;-54
2023/07/04 00:45:31;;;;;;;6.65;1.80;;;11.90;99.90;;;;;;5071915;28;20170;-55
2023/07/04 00:48:03;;;;;;;8.18;1.77;;;12.00;99.90;;;;;;5071799;28;20111;-55
2023/07/04 00:50:35;;;;;;;5.90;1.58;;;11.90;99.90;;;;;;5071948;28;20040;-55
2023/07/04 00:53:07;;;;;;;8.15;1.70;;;11.80;99.90;;;;;;5071344;28;20063;-54
2023/07/04 00:55:36;;;;;;;6.75;1.50;;;11.80;99.90;;;;;;5071956;28;20036;-55
2023/07/04 00:58:04;;;;;;;6.55;1.75;;;11.80;99.90;;;;;;5071901;28;20040;-55
2023/07/04 01:00:31;;;;;;;7.32;1.77;;;11.70;99.90;;;;;;5071430;28;20471;-55
2023/07/04 01:03:04;;;;;;;7.72;2.20;;;11.70;99.90;;;;;;5071913;28;20032;-55
2023/07/04 01:05:42;;;;;;;5.93;1.90;;;11.70;99.90;;;;;;5071833;28;20112;-54
2023/07/04 01:08:33;;;;;;;16.15;1.63;;;11.70;99.90;;;;;;5071768;28;20047;-54
2023/07/04 01:11:03;;;;;;;4.93;1.33;;;11.60;99.90;;;;;;5071532;28;20611;-55
2023/07/04 01:13:37;;;;;;;5.00;1.58;;;11.60;99.90;;;;;;5071517;28;20597;-55
2023/07/04 01:16:11;;;;;;;12.10;1.95;;;11.60;99.90;;;;;;5071735;28;20044;-55
2023/07/04 01:18:44;;;;;;;6.72;1.92;;;11.60;99.90;;;;;;5072191;28;20423;-54
2023/07/04 01:21:11;;;;;;;8.55;1.90;;;11.60;99.90;;;;;;5071723;28;20082;-55
2023/07/04 01:23:54;;;;;;;8.52;1.70;;;11.60;99.90;;;;;;5071890;28;20052;-55
2023/07/04 01:26:29;;;;;;;8.48;2.15;;;11.60;99.90;;;;;;5058151;28;20063;-55
2023/07/04 01:28:56;;;;;;;6.38;1.63;;;11.70;99.90;;;;;;5071629;28;20402;-55
2023/07/04 01:31:25;;;;;;;7.05;1.80;;;11.70;99.90;;;;;;5071321;28;20036;-55
2023/07/04 01:33:51;;;;;;;;;;;11.70;99.90;;;;;;5071820;28;20067;-54
2023/07/04 01:36:20;;;;;;;9.68;1.85;;;11.70;99.90;;;;;;5071186;28;19921;-55
2023/07/04 01:38:46;;;;;;;9.15;1.63;;;11.80;99.90;;;;;;5066053;28;20043;-55
2023/07/04 01:41:12;;;;;;;8.98;2.22;;;11.80;99.90;;;;;;5062886;28;20040;-54
2023/07/04 01:43:39;;;;;;;6.43;1.58;;;11.80;99.90;;;;;;5071261;28;20043;-55
2023/07/04 01:46:04;;;;;;;11.02;2.58;;;11.90;99.90;;;;;;5071207;28;20049;-55
2023/07/04 01:48:31;;;;;;;10.98;1.83;;;11.80;99.90;;;;;;5071447;28;20044;-54
2023/07/04 01:50:56;;;;;;;5.65;1.85;;;11.90;99.90;;;;;;5071052;28;20098;-55
2023/07/04 01:53:22;;;;;;;5.82;2.25;;;11.80;99.90;;;;;;5071373;28;20044;-54
2023/07/04 01:55:47;;;;;;;8.10;1.77;;;11.90;99.90;;;;;;5071333;28;20040;-54
2023/07/04 01:58:13;;;;;;;7.28;2.17;;;11.80;99.90;;;;;;5071216;28;20028;-55
2023/07/04 02:00:39;;;;;;;2.92;1.77;;;11.90;99.90;;;;;;5071201;28;20046;-55
2023/07/04 02:03:05;;;;;;;8.00;2.17;;;11.90;99.90;;;;;;5071168;28;20036;-55
2023/07/04 02:05:30;;;;;;;5.70;1.95;;;11.90;99.90;;;;;;5074440;28;20037;-54
2023/07/04 02:07:56;;;;;;;12.05;2.30;;;11.90;99.90;;;;;;5074973;28;20471;-55
2023/07/04 02:10:22;;;;;;;4.95;2.22;;;11.90;99.90;;;;;;5074823;28;20101;-54
2023/07/04 02:12:48;;;;;;;5.28;2.38;;;11.90;99.90;;;;;;5075083;28;20111;-54
2023/07/04 02:15:13;;;;;;;5.68;1.92;;;11.90;99.90;;;;;;5074784;28;20119;-53
2023/07/04 02:17:40;;;;;;;5.95;1.80;;;12.00;99.90;;;;;;5074826;28;20041;-55
2023/07/04 02:20:06;;;;;;;5.95;2.05;;;12.00;99.90;;;;;;5074803;28;20037;-54
2023/07/04 02:22:32;;;;;;;7.53;2.45;;;12.00;99.90;;;;;;5074794;28;20395;-54
2023/07/04 02:24:58;;;;;;;6.85;2.67;;;12.10;99.90;;;;;;5074490;28;20475;-55
2023/07/04 02:27:23;;;;;;;5.38;2.40;;;12.00;99.90;;;;;;5074449;28;20094;-54
2023/07/04 02:29:49;;;;;;;6.63;1.90;;;12.10;99.90;;;;;;5073272;28;20040;-52
2023/07/04 02:32:15;;;;;;;12.90;2.38;;;12.10;99.90;;;;;;5074452;28;20029;-54
2023/07/04 02:34:40;;;;;;;8.93;1.98;;;12.10;99.90;;;;;;5074621;28;20079;-55
2023/07/04 02:37:06;;;;;;;8.93;2.42;;;12.10;99.90;;;;;;5073824;28;20130;-55
2023/07/04 02:39:32;;;;;;;6.38;2.13;;;12.10;99.90;;;;;;5062817;28;20510;-55
2023/07/04 02:41:57;;;;;;;6.82;3.03;;;12.20;99.90;;;;;;5071673;28;20040;-55
2023/07/04 02:44:23;;;;;;;7.75;1.95;;;12.20;99.90;;;;;;5059808;28;20041;-55
2023/07/04 02:46:49;;;;;;;7.38;2.00;;;12.20;99.90;;;;;;5056592;28;20041;-54
2023/07/04 02:49:15;;;;;;;9.07;2.58;;;12.20;99.90;;;;;;5060200;28;20111;-54
2023/07/04 02:51:40;;;;;;;7.82;2.38;;;12.20;99.90;;;;;;5071068;28;20033;-54
2023/07/04 02:54:06;;;;;;;9.50;2.10;;;12.20;99.90;;;;;;5063264;28;20063;-55
2023/07/04 02:56:31;;;;;;;10.90;2.42;;;12.30;99.90;;;;;;5073824;28;20038;-55
2023/07/04 02:58:57;;;;;;;6.80;2.30;;;12.30;99.90;;;;;;5074092;28;20039;-54
2023/07/04 03:01:23;;;;;;;10.13;2.70;;;12.30;99.90;;;;;;5060798;28;20090;-54
2023/07/04 03:03:49;;;;;;;8.38;2.25;;;12.40;99.90;;;;;;5072962;28;20036;-54
2023/07/04 03:06:14;;;;;;;8.20;2.80;;;12.40;99.90;;;;;;5073949;28;20051;-53
2023/07/04 03:08:40;;;;;;;7.18;2.33;;;12.40;99.90;;;;;;5073588;28;20044;-54
2023/07/04 03:11:06;;;;;;;13.02;2.25;;;12.40;99.90;;;;;;5073860;28;20029;-54
2023/07/04 03:13:34;;;;;;;5.22;2.15;;;12.30;99.90;;;;;;5073556;28;20471;-55
2023/07/04 03:16:00;;;;;;;4.32;2.00;;;12.40;99.90;;;;;;5073380;28;20035;-55
2023/07/04 03:18:26;;;;;;;6.40;2.40;;;12.40;99.90;;;;;;5061144;28;20527;-55
2023/07/04 03:20:52;;;;;;;6.53;2.08;;;12.40;99.90;;;;;;5072635;28;20041;-53
2023/07/04 03:23:18;;;;;;;4.90;1.73;;;12.50;99.90;;;;;;5073442;28;20105;-55
2023/07/04 03:25:43;;;;;;;8.07;2.30;;;12.40;99.90;;;;;;5073650;28;20045;-54
2023/07/04 03:28:09;;;;;;;3.50;1.70;;;12.40;99.90;;;;;;5073800;28;20032;-55
2023/07/04 03:30:35;;;;;;;7.32;2.17;;;12.40;99.90;;;;;;5073439;28;20048;-54
2023/07/04 03:33:00;;;;;;;6.20;1.60;;;12.30;99.90;;;;;;5073845;28;20418;-54
2023/07/04 03:35:26;;;;;;;3.67;1.40;;;12.30;99.90;;;;;;5073282;28;20041;-55
2023/07/04 03:37:52;;;;;;;13.18;1.80;;;12.40;99.90;;;;;;5073353;28;20242;-54
2023/07/04 03:40:18;;;;;;;9.88;1.65;;;12.40;99.90;;;;;;5073278;28;20036;-54
2023/07/04 03:42:44;;;;;;;5.85;2.00;;;12.30;99.90;;;;;;5073006;28;20128;-53
2023/07/04 03:45:10;;;;;;;4.18;1.40;;;12.30;99.90;;;;;;5073333;28;20133;-53
2023/07/04 03:47:36;;;;;;;4.43;1.67;;;12.30;99.90;;;;;;5073128;28;20068;-55
2023/07/04 03:50:02;;;;;;;5.85;1.65;;;12.30;99.90;;;;;;5071809;28;20428;-54
2023/07/04 03:52:28;;;;;;;6.03;1.95;;;12.30;99.90;;;;;;5060740;28;20041;-53
2023/07/04 03:54:54;;;;;;;3.90;1.33;;;12.30;99.90;;;;;;5070706;28;20036;-55
2023/07/04 03:57:19;;;;;;;5.75;1.10;;;12.30;99.90;;;;;;5072808;28;20494;-55
2023/07/04 03:59:45;;;;;;;7.53;1.38;;;12.30;99.90;;;;;;5072628;28;20040;-53
2023/07/04 04:02:11;;;;;;;5.72;1.30;;;12.30;99.90;;;;;;5073098;28;20097;-55
2023/07/04 04:04:39;;;;;;;3.65;1.38;;;12.30;99.90;;;;;;5072980;28;20070;-54
2023/07/04 04:07:09;;;;;;;6.65;1.63;;;12.30;99.90;;;;;;5072559;28;20090;-53
2023/07/04 04:09:36;;;;;;;5.13;1.42;;;12.30;99.90;;;;;;5072880;28;20048;-55
2023/07/04 04:12:04;;;;;;;1.92;0.98;;;12.40;99.90;;;;;;5072731;28;20036;-54
2023/07/04 04:14:29;;;;;;;4.07;1.63;;;12.40;99.90;;;;;;5071280;28;20441;-54
2023/07/04 04:16:56;;;;;;;4.50;1.40;;;12.30;99.90;;;;;;5072549;28;20032;-55
2023/07/04 04:19:22;;;;;;;4.50;1.52;;;12.40;99.90;;;;;;5072410;28;20036;-53
2023/07/04 04:21:48;;;;;;;9.88;1.73;;;12.40;99.90;;;;;;5072173;28;20111;-54
2023/07/04 04:24:14;;;;;;;7.43;1.95;;;12.50;99.90;;;;;;5072365;28;20116;-55
2023/07/04 04:26:40;;;;;;;9.82;2.15;;;12.50;99.90;;;;;;5071632;28;20041;-55
2023/07/04 04:29:06;;;;;;;7.05;1.77;;;12.50;99.90;;;;;;5071924;28;20037;-54
2023/07/04 04:31:37;;;;;;;7.03;2.13;;;12.60;99.90;;;;;;5072428;28;20119;-54
2023/07/04 04:34:03;;;;;;;6.15;1.98;;;12.60;99.90;;;;;;5072063;28;20041;-55
2023/07/04 04:36:30;;;;;;;5.70;2.40;;;12.70;99.90;;;;;;5071997;28;20051;-55
2023/07/04 04:38:56;;;;;;;7.03;2.85;;;12.70;99.90;;;;;;5072135;28;20039;-55
2023/07/04 04:41:22;;;;;;;5.13;1.67;;;12.80;99.90;;;;;;5072193;28;20036;-53
2023/07/04 04:43:50;;;;;;;5.60;1.88;;;12.90;99.90;;;;;;5071967;28;20097;-55
2023/07/04 04:46:16;;;;;;;6.72;2.58;;;12.80;99.90;;;;;;5071953;28;20044;-55
2023/07/04 04:48:42;;;;;;;6.07;1.77;;;12.90;99.90;;;;;;5072254;28;20051;-54
2023/07/04 04:51:12;;;;;;;7.28;1.70;;;12.90;99.90;;;;;;5070650;28;20040;-55
2023/07/04 04:53:40;;;;;;;4.90;1.67;;;13.00;99.90;;;;;;5059407;28;20040;-54
2023/07/04 04:56:08;;;;;;;7.27;2.03;;;13.00;99.90;;;;;;5071971;28;20041;-52
2023/07/04 04:58:34;;;;;;;4.78;1.85;;;13.00;99.90;;;;;;5072093;28;20028;-54
2023/07/04 05:01:25;;;;;;;4.57;2.05;;;13.10;99.90;;;;;;5071740;28;20493;-54
2023/07/04 05:03:55;;;;;;;6.55;2.00;;;13.10;99.90;;;;;;5069603;28;20052;-53
2023/07/04 05:06:23;;;;;;;8.32;1.80;;;13.20;99.90;;;;;;5071475;28;20119;-54
2023/07/04 05:08:50;;;;;;;11.07;2.22;;;13.20;99.90;;;;;;5071906;28;20041;-55
2023/07/04 05:11:16;;;;;;;11.60;1.88;;;13.20;99.90;;;;;;5071756;28;20375;-54
2023/07/04 05:13:45;;;;;;;12.93;3.00;;;13.20;99.90;;;;;;5071523;28;20045;-55
2023/07/04 05:16:12;;;;;;;6.22;1.98;;;13.30;99.90;;;;;;5071699;28;20568;-54
2023/07/04 05:18:39;;;;;;;6.68;2.30;;;13.30;99.90;;;;;;5071355;28;20032;-55
2023/07/04 05:21:25;;;;;;;7.53;3.03;;;13.40;99.90;;;;;;5071773;28;20033;-54
2023/07/04 05:23:52;;;;;;;8.50;2.80;;;13.40;99.90;;;;;;5071577;28;20044;-55
2023/07/04 05:26:26;;;;;;;11.85;2.88;;;13.40;99.90;;;;;;5071668;28;20162;-53
2023/07/04 05:28:54;;;;;;;6.65;3.00;;;13.50;99.90;;;;;;5071636;28;20048;-55
2023/07/04 05:31:23;;;;;;;10.60;2.88;;;13.50;99.90;;;;;;5071508;28;20044;-53
2023/07/04 05:33:48;;;;;;;8.90;2.88;;;13.60;99.90;;;;;;5071459;28;20129;-55
2023/07/04 05:36:29;;;;;;;8.15;3.05;;;13.60;99.90;;;;;;5071632;28;20131;-55
2023/07/04 05:38:56;;;;;;;9.85;2.78;;;13.60;99.90;;;;;;5073446;28;20052;-55
2023/07/04 05:41:27;;;;;;;8.98;3.10;;;13.80;99.90;;;;;;5075433;28;20036;-54
2023/07/04 05:43:58;;;;;;;10.00;3.28;;;13.90;99.90;;;;;;5075295;28;20090;-55
2023/07/04 05:46:24;;;;;;;12.45;3.03;;;13.90;99.90;;;;;;5075460;28;20044;-55
2023/07/04 05:48:50;;;;;;;7.75;2.40;;;14.00;99.90;;;;;;5075641;28;20139;-55
2023/07/04 05:51:17;;;;;;;5.65;2.60;;;14.00;99.90;;;;;;5073319;28;20045;-55
2023/07/04 05:53:45;;;;;;;5.95;2.30;;;14.10;99.90;;;;;;5063505;28;20117;-54
2023/07/04 05:56:12;;;;;;;12.18;3.03;;;14.10;99.90;;;;;;5074906;28;20041;-54
2023/07/04 05:58:41;;;;;;;10.35;2.42;;;14.10;99.90;;;;;;5075287;28;20040;-55
2023/07/04 06:01:11;;;;;;;7.88;1.90;;;14.20;99.90;;;;;;5075182;28;20037;-55
2023/07/04 06:03:37;;;;;;;8.88;2.00;;;14.20;99.90;;;;;;5075184;28;20185;-55
2023/07/04 06:06:05;;;;;;;7.50;1.80;;;14.20;99.90;;;;;;5073909;28;20044;-55
2023/07/04 06:08:33;;;;;;;7.70;2.50;;;14.50;99.90;;;;;;5074645;28;20067;-54
2023/07/04 06:11:04;;;;;;;10.85;2.10;;;14.70;99.90;;;;;;5075058;28;20047;-55
2023/07/04 06:13:30;;;;;;;7.82;2.10;;;14.70;99.90;;;;;;5074566;28;20044;-55
2023/07/04 06:15:57;;;;;;;9.77;1.90;;;14.80;99.90;;;;;;5074763;28;20498;-55
2023/07/04 06:18:23;;;;;;;10.70;2.72;;;14.80;99.90;;;;;;5074760;28;20040;-54
2023/07/04 06:20:49;;;;;;;7.95;1.55;;;14.80;99.90;;;;;;5074529;28;20025;-55
2023/07/04 06:23:15;;;;;;;8.50;1.65;;;14.90;99.90;;;;;;5074708;28;20047;-55
2023/07/04 06:25:40;;;;;;;3.55;1.75;;;15.00;99.90;;;;;;5074651;28;20459;-55
2023/07/04 06:28:06;;;;;;;6.40;1.52;;;15.00;99.90;;;;;;5074362;28;20493;-55
2023/07/04 06:30:34;;;;;;;6.35;1.58;;;15.00;99.90;;;;;;5074618;28;20036;-55
2023/07/04 06:33:03;;;;;;;6.05;1.30;;;15.10;99.90;;;;;;5074780;28;20029;-54
2023/07/04 06:35:29;;;;;;;4.68;1.48;;;15.10;99.90;;;;;;5074175;28;20084;-58
2023/07/04 06:37:55;;;;;;;9.10;1.50;;;15.20;99.90;;;;;;5074735;28;20052;-54
2023/07/04 06:40:21;;;;;;;7.03;1.73;;;15.40;99.90;;;;;;5074545;28;20041;-55
2023/07/04 06:42:46;;;;;;;9.25;1.20;;;15.50;99.90;;;;;;5074578;28;20378;-55
2023/07/04 06:45:12;;;;;;;5.38;1.27;;;15.50;99.90;;;;;;5074323;28;20040;-55
2023/07/04 06:47:38;;;;;;;6.82;1.50;;;15.50;99.90;;;;;;5074324;28;20043;-55
2023/07/04 06:50:04;;;;;;;5.80;1.33;;;15.70;99.90;;;;;;5074122;28;20055;-55
2023/07/04 06:52:32;;;;;;;6.07;1.25;;;15.70;99.90;;;;;;5061985;28;20045;-55
2023/07/04 06:54:57;;;;;;;5.03;1.38;;;15.80;99.90;;;;;;5072808;28;20044;-55
2023/07/04 06:57:23;;;;;;;9.20;1.60;;;15.80;99.90;;;;;;5074668;28;20032;-55
2023/07/04 06:59:52;;;;;;;10.15;1.50;;;15.80;99.90;;;;;;5073955;28;20493;-54
2023/07/04 07:02:17;;;;;;;4.00;1.17;;;15.90;99.90;;;;;;5074262;28;20039;-55
2023/07/04 07:04:43;;;;;;;9.57;1.60;;;16.00;99.90;;;;;;5073793;28;20044;-55
2023/07/04 07:07:10;;;;;;;7.07;1.38;;;16.00;99.90;;;;;;5073915;28;20064;-56
2023/07/04 07:09:41;;;;;;;8.45;1.52;;;16.20;99.90;;;;;;5073774;28;20041;-55
2023/07/04 07:12:09;;;;;;;5.25;1.33;;;16.50;99.90;;;;;;5073846;28;20109;-55
2023/07/04 07:14:36;;;;;;;7.07;1.70;;;16.70;99.90;;;;;;5074241;28;20044;-55
2023/07/04 07:17:02;;;;;;;4.47;1.33;;;16.80;99.90;;;;;;5073663;28;20051;-56
2023/07/04 07:19:29;;;;;;;5.22;1.70;;;16.80;99.90;;;;;;5074046;28;20572;-55
2023/07/04 07:21:55;;;;;;;5.88;1.13;;;16.80;99.90;;;;;;5074119;28;20461;-55
2023/07/04 07:24:21;;;;;;;4.95;1.20;;;16.80;99.90;;;;;;5073572;28;20044;-55
2023/07/04 07:26:47;;;;;;;5.07;1.40;;;16.90;99.90;;;;;;5073544;28;20048;-55
2023/07/04 07:29:13;;;;;;;6.85;1.58;;;16.90;99.90;;;;;;5073495;28;20047;-56
2023/07/04 07:31:38;;;;;;;6.50;1.20;;;17.10;99.90;;;;;;5071601;28;20080;-55
2023/07/04 07:34:05;;;;;;;7.40;1.42;;;17.40;99.90;;;;;;5073162;28;20044;-55
2023/07/04 07:36:37;;;;;;;3.97;1.25;;;17.50;99.90;;;;;;5073097;28;20049;-55
2023/07/04 07:39:04;;;;;;;6.38;1.10;;;17.30;99.90;;;;;;5073610;28;20044;-55
2023/07/04 07:41:32;;;;;;;6.25;1.35;;;17.20;99.90;;;;;;5073339;28;20036;-55
2023/07/04 07:43:58;;;;;;;5.40;1.10;;;17.10;99.90;;;;;;5073542;28;20059;-55
2023/07/04 07:46:24;;;;;;;4.65;1.05;;;17.10;99.90;;;;;;5073142;28;20039;-55
2023/07/04 07:48:50;;;;;;;7.70;1.50;;;17.00;99.90;;;;;;5073195;28;20036;-55
2023/07/04 07:51:17;;;;;;;2.97;1.23;;;17.10;99.90;;;;;;5070891;28;20040;-56
2023/07/04 07:53:45;;;;;;;3.67;1.00;;;17.20;99.90;;;;;;5061334;28;20076;-55
2023/07/04 07:56:13;;;;;;;6.57;1.38;;;17.20;99.90;;;;;;5071548;28;20044;-56
2023/07/04 07:58:39;;;;;;;10.02;1.23;;;17.10;99.90;;;;;;5072876;28;20556;-55
2023/07/04 08:01:15;;;;;;;6.07;1.67;;;17.30;99.90;;;;;;5072639;28;20033;-55
2023/07/04 08:03:42;;;;;;;4.90;1.65;;;17.30;99.90;;;;;;5059052;28;20097;-55
2023/07/04 08:06:09;;;;;;;7.05;1.60;;;17.30;99.90;;;;;;5072837;28;20040;-55
2023/07/04 08:08:35;;;;;;;7.57;1.40;;;17.30;99.90;;;;;;5072740;28;20112;-56
2023/07/04 08:11:01;;;;;;;6.93;1.52;;;17.40;99.90;;;;;;5072682;28;20131;-55
2023/07/04 08:13:26;;;;;;;8.52;1.63;;;17.40;99.90;;;;;;5072674;28;20063;-55
2023/07/04 08:15:56;;;;;;;3.33;1.20;;;17.40;99.90;;;;;;5072358;28;20028;-55
2023/07/04 08:18:22;;;;;;;7.53;1.60;;;17.40;99.90;;;;;;5072625;28;20043;-55
2023/07/04 08:21:00;;;;;;;6.22;1.45;;;17.40;99.90;;;;;;5072332;28;20067;-56
2023/07/04 08:23:26;;;;;;;10.93;1.48;;;17.60;99.90;;;;;;5072352;28;20431;-55
2023/07/04 08:25:51;;;;;;;5.25;1.25;;;17.70;99.90;;;;;;5072502;28;20067;-55
2023/07/04 08:28:18;;;;;;;7.45;1.42;;;17.90;99.90;;;;;;5072170;28;20032;-55
2023/07/04 08:30:43;;;;;;;3.90;1.10;;;17.90;99.90;;;;;;5072390;28;20029;-56
2023/07/04 08:33:09;;;;;;;5.18;1.45;;;18.10;99.90;;;;;;5072547;28;20079;-55
2023/07/04 08:35:35;;;;;;;4.95;0.98;;;18.00;99.90;;;;;;5071974;28;20494;-55
2023/07/04 08:38:01;;;;;;;3.97;1.30;;;17.80;99.90;;;;;;5071950;28;20127;-55
2023/07/04 08:40:26;;;;;;;4.65;1.40;;;17.70;99.90;;;;;;5072237;28;20120;-53
2023/07/04 08:42:52;;;;;;;8.27;1.40;;;17.70;99.90;;;;;;5072108;28;20028;-55
2023/07/04 08:45:26;;;;;;;4.80;1.48;;;17.60;99.90;;;;;;5072252;28;20402;-56
2023/07/04 08:47:54;;;;;;;5.38;1.42;;;17.60;99.90;;;;;;5072246;28;20032;-62
2023/07/04 08:50:25;;;;;;;5.68;1.85;;;17.70;99.90;;;;;;5073349;28;20049;-63
2023/07/04 08:53:02;;;;;;;9.38;1.55;;;18.10;99.90;;;;;;5058831;28;20120;-63
2023/07/04 08:55:28;;;;;;;9.73;1.80;;;18.40;99.90;;;;;;5071617;28;20040;-64
2023/07/04 08:57:55;;;;;;;8.20;1.45;;;18.70;99.90;;;;;;5073079;28;20102;-63
2023/07/04 09:00:28;;;;;;;7.22;1.55;;;19.10;99.90;;;;;;5073132;28;20059;-63
2023/07/04 09:03:18;;;;;;;8.13;1.50;;;19.60;99.90;;;;;;5072981;28;20364;-64
2023/07/04 09:06:04;;;;;;;5.60;1.60;;;20.00;99.90;;;;;;5062304;28;20032;-64
2023/07/04 09:08:45;;;;;;;8.55;2.55;;;20.20;99.90;;;;;;5072561;28;20047;-63
2023/07/04 09:11:12;;;;;;;7.63;2.08;;;20.30;99.90;;;;;;5073155;28;20093;-64
2023/07/04 09:13:44;;;;;;;8.20;1.52;;;20.30;99.90;;;;;;5054467;28;20535;-63
2023/07/04 09:16:17;;;;;;;5.28;1.55;;;20.80;99.90;;;;;;5072963;28;20538;-63
2023/07/04 09:19:05;;;;;;;10.30;2.05;;;20.50;99.90;;;;;;5072486;28;20387;-64
2023/07/04 09:21:32;;;;;;;9.55;2.08;;;20.20;99.90;;;;;;5072856;28;20070;-63
2023/07/04 09:23:59;;;;;;;11.18;2.17;;;20.40;99.90;;;;;;5072344;28;20570;-64
2023/07/04 09:26:38;;;;;;;7.18;2.03;;;20.60;99.90;;;;;;5072495;28;20123;-64
2023/07/04 09:29:06;;;;;;;8.95;2.00;;;20.80;99.90;;;;;;5072422;28;20478;-63
2023/07/04 09:31:36;;;;;;;11.93;2.00;;;21.00;99.90;;;;;;5072607;28;20040;-63
2023/07/04 09:34:07;;;;;;;7.60;2.08;;;20.90;99.90;;;;;;5072146;28;20040;-64
2023/07/04 09:36:37;;;;;;;7.15;1.30;;;21.00;99.90;;;;;;5072250;28;20060;-63
2023/07/04 09:39:04;;;;;;;9.23;1.92;;;21.10;99.90;;;;;;5072100;28;20098;-63
2023/07/04 09:41:37;;;;;;;9.00;2.00;;;21.00;99.90;;;;;;5072129;28;20435;-64
2023/07/04 09:44:14;;;;;;;10.15;2.42;;;21.20;99.90;;;;;;5072431;28;20040;-64
2023/07/04 09:46:47;;;;;;;8.80;2.05;;;21.20;99.90;;;;;;5072138;28;20052;-63
2023/07/04 09:49:22;;;;;;;10.23;1.90;;;21.40;99.90;;;;;;5072455;28;20074;-62
2023/07/04 09:52:05;;;;;;;6.88;2.47;;;21.00;99.90;;;;;;5064446;28;20060;-63
2023/07/04 09:54:40;;;;;;;6.28;1.55;;;20.50;99.90;;;;;;5066777;28;20047;-63
2023/07/04 09:57:25;;;;;;;10.95;2.30;;;20.20;99.90;;;;;;5070851;28;20032;-64
2023/07/04 09:59:51;;;;;;;8.85;2.00;;;20.00;99.90;;;;;;5071536;28;20032;-64
2023/07/04 10:02:18;;;;;;;6.80;1.60;;;20.10;99.90;;;;;;5072139;28;20033;-65
2023/07/04 10:04:49;;;;;;;5.05;1.73;;;20.60;99.90;;;;;;5072169;28;20047;-64
2023/07/04 10:07:17;;;;;;;11.35;1.88;;;20.60;99.90;;;;;;5072202;28;20104;-64
2023/07/04 10:09:56;;;;;;;10.30;2.15;;;20.40;99.90;;;;;;5071755;28;20045;-64
2023/07/04 10:12:24;;;;;;;7.53;1.63;;;20.00;99.90;;;;;;5060107;28;20040;-63
2023/07/04 10:15:00;;;;;;;8.02;2.28;;;20.10;99.90;;;;;;5071996;28;20052;-64
2023/07/04 10:17:28;;;;;;;7.25;1.45;;;20.20;99.90;;;;;;5072177;28;20041;-64
2023/07/04 10:20:12;;;;;;;10.68;1.60;;;20.40;99.90;;;;;;5071860;28;20044;-63
2023/07/04 10:22:49;;;;;;;10.32;1.50;;;20.50;99.90;;;;;;5071341;28;20421;-64
2023/07/04 10:25:17;;;;;;;6.82;2.30;;;20.70;99.90;;;;;;5072906;28;20390;-63
2023/07/04 10:27:50;;;;;;;9.07;1.60;;;21.20;99.90;;;;;;5075858;28;20390;-64
2023/07/04 10:30:23;;;;;;;7.03;1.58;;;21.40;99.90;;;;;;5075697;28;20040;-63
2023/07/04 10:33:01;;;;;;;9.10;1.50;;;21.10;99.90;;;;;;5075579;28;20037;-63
2023/07/04 10:35:30;;;;;;;10.93;2.33;;;21.30;99.90;;;;;;5075555;28;20049;-63
2023/07/04 10:38:01;;;;;;;6.90;1.45;;;21.50;99.90;;;;;;5074917;28;20052;-62
2023/07/04 10:40:28;;;;;;;6.18;1.73;;;21.10;99.90;;;;;;5075086;28;20471;-64
2023/07/04 10:42:58;;;;;;;6.90;1.60;;;20.80;99.90;;;;;;5075248;28;20619;-63
2023/07/04 10:45:26;;;;;;;11.10;1.90;;;20.50;99.90;;;;;;5061839;28;20045;-64
2023/07/04 10:47:56;;;;;;;10.20;1.60;;;20.30;99.90;;;;;;5075181;28;20437;-64
2023/07/04 10:50:36;;;;;;;5.15;1.77;;;20.10;99.90;;;;;;5075252;28;20036;-64
2023/07/04 10:53:02;;;;;;;6.97;1.42;;;20.50;99.90;;;;;;5060924;28;20039;-64
2023/07/04 10:55:36;;;;;;;6.53;1.33;;;20.50;99.90;;;;;;5075332;28;20045;-64
2023/07/04 10:58:08;;;;;;;11.32;1.70;;;20.30;99.90;;;;;;5075213;28;20051;-63
2023/07/04 11:00:36;;;;;;;7.80;1.80;;;20.10;99.90;;;;;;5075476;28;20033;-64
2023/07/04 11:03:27;;;;;;;6.53;1.60;;;19.90;99.90;;;;;;5074857;28;20501;-64
2023/07/04 11:05:57;;;;;;;8.40;2.05;;;19.70;99.90;;;;;;5074608;28;20498;-63
2023/07/04 11:08:28;;;;;;;7.40;1.92;;;19.50;99.90;;;;;;5074892;28;20498;-63
2023/07/04 11:11:08;;;;;;;12.23;2.13;;;19.60;99.90;;;;;;5074369;28;20082;-63
2023/07/04 11:13:39;;;;;;;9.82;2.38;;;19.80;99.90;;;;;;5074205;28;20487;-64
2023/07/04 11:16:07;;;;;;;12.73;1.80;;;19.90;99.90;;;;;;5074579;28;20548;-63
2023/07/04 11:18:38;;;;;;;9.07;1.80;;;20.00;99.90;;;;;;5074443;28;20487;-64
2023/07/04 11:21:16;;;;;;;8.85;2.00;;;19.80;99.90;;;;;;5074610;28;20463;-64
2023/07/04 11:23:49;;;;;;;7.95;1.75;;;19.60;99.90;;;;;;5074540;28;20044;-64
2023/07/04 11:26:16;;;;;;;9.40;1.67;;;19.90;99.90;;;;;;5073613;28;20117;-63
2023/07/04 11:28:48;;;;;;;7.15;1.88;;;20.50;99.90;;;;;;5074338;28;20041;-63
2023/07/04 11:31:24;;;;;;;12.60;1.90;;;20.90;99.90;;;;;;5069788;28;20036;-63
2023/07/04 11:33:53;;;;;;;10.00;2.55;;;21.20;99.90;;;;;;5073810;28;20098;-64
2023/07/04 11:36:28;;;;;;;14.18;2.00;;;21.30;99.90;;;;;;5074007;28;20048;-63
2023/07/04 11:38:58;;;;;;;10.18;1.85;;;21.40;99.90;;;;;;5074570;28;20037;-63
2023/07/04 11:41:38;;;;;;;16.13;3.10;;;21.70;99.90;;;;;;5073857;28;20033;-65
2023/07/04 11:44:30;;;;;;;7.50;1.70;;;21.50;99.90;;;;;;5074279;28;20048;-63
2023/07/04 11:47:10;;;;;;;9.32;1.40;;;21.20;99.90;;;;;;5031818;28;20060;-63
2023/07/04 11:49:36;;;;;;;5.45;2.05;;;21.20;99.90;;;;;;5032055;28;20047;-64
2023/07/04 11:52:10;;;;;;;7.82;2.00;;;21.10;99.90;;;;;;5032087;28;20523;-64
2023/07/04 11:54:36;;;;;;;9.68;2.10;;;21.10;99.90;;;;;;5031584;28;20049;-62
2023/07/04 11:57:08;;;;;;;7.25;1.35;;;21.20;99.90;;;;;;5031885;28;20079;-63
2023/07/04 11:59:38;;;;;;;9.00;1.85;;;20.80;99.90;;;;;;5031749;28;20392;-63
2023/07/04 12:02:24;;;;;;;7.32;1.90;;;20.80;99.90;;;;;;5031831;28;20075;-63
2023/07/04 12:04:51;;;;;;;13.07;1.55;;;20.60;99.90;;;;;;5031684;28;20160;-63
2023/07/04 12:07:59;;;;;;;8.43;1.90;;;20.90;99.90;;;;;;5031620;28;20092;-63
2023/07/04 12:10:29;;;;;;;10.52;1.98;;;20.70;99.90;;;;;;5031046;28;20053;-64
2023/07/04 12:13:01;;;;;;;11.85;2.08;;;20.90;99.90;;;;;;5031423;28;20095;-63
2023/07/04 12:15:32;;;;;;;8.85;1.98;;;21.00;99.90;;;;;;5030897;28;20092;-63
2023/07/04 12:18:00;;;;;;;13.20;2.10;;;21.10;99.90;;;;;;5031022;28;20045;-63
2023/07/04 12:20:30;;;;;;;7.63;1.60;;;21.40;99.90;;;;;;5031175;28;20125;-63
2023/07/04 12:23:00;;;;;;;9.93;1.75;;;21.60;99.90;;;;;;5033123;28;20053;-63
2023/07/04 12:25:37;;;;;;;6.10;1.60;;;21.50;99.90;;;;;;5059662;28;20098;-63
2023/07/04 12:28:03;;;;;;;6.05;1.65;;;21.10;99.90;;;;;;5071975;28;20059;-63
2023/07/04 12:30:30;;;;;;;9.98;2.53;;;21.00;99.90;;;;;;5072851;28;20498;-64
2023/07/04 12:32:56;;;;;;;8.55;1.70;;;21.10;99.90;;;;;;5073053;28;20028;-65
2023/07/04 12:35:35;;;;;;;8.18;1.67;;;21.10;99.90;;;;;;5072750;28;20044;-63
2023/07/04 12:38:02;;;;;;;6.15;1.60;;;21.30;99.90;;;;;;5072634;28;20052;-63
2023/07/04 12:40:30;;;;;;;5.50;1.98;;;21.50;99.90;;;;;;5073172;28;20063;-64
2023/07/04 12:42:59;;;;;;;8.52;1.75;;;21.60;99.90;;;;;;5072944;28;20427;-64
2023/07/04 12:45:27;;;;;;;9.07;1.42;;;21.70;99.90;;;;;;5072470;28;20041;-63
2023/07/04 12:47:57;;;;;;;8.65;1.75;;;21.60;99.90;;;;;;5071994;28;20052;-64
2023/07/04 12:50:23;;;;;;;3.45;1.42;;;21.60;99.90;;;;;;5071956;28;20052;-65
2023/07/04 12:52:50;;;;;;;8.90;1.85;;;21.70;99.90;;;;;;5058844;28;20049;-63
2023/07/04 12:55:23;;;;;;;7.60;1.98;;;21.50;99.90;;;;;;5073009;28;20093;-64